Time;durP1;ratioP1;P1;durP2;ratioP2;P2;SDS_P1;SDS_P2;PMS_P1;PMS_P2;Temp;Humidity;BMP_temperature;BMP_pressure;BME280_temperature;BME280_humidity;BME280_pressure;Samples;Min_cycle;Max_cycle;Signal;HPM_P1;HPM_P2
2023/01/28 00:02:07;;;;;;;11.10;7.85;;;2.60;99.90;;;;;;5045223;28;20132;-81
2023/01/28 00:04:33;;;;;;;10.55;7.90;;;2.60;99.90;;;;;;5047009;28;20595;-81
2023/01/28 00:06:59;;;;;;;10.90;8.25;;;2.60;99.90;;;;;;5058119;28;20110;-81
2023/01/28 00:09:24;;;;;;;11.23;7.80;;;2.60;99.90;;;;;;5041368;28;20495;-81
2023/01/28 00:11:50;;;;;;;11.43;7.85;;;2.50;99.90;;;;;;5049116;28;20036;-81
2023/01/28 00:14:16;;;;;;;9.77;7.38;;;2.50;99.90;;;;;;5064545;28;20124;-81
2023/01/28 00:16:42;;;;;;;9.85;7.25;;;2.50;99.90;;;;;;5051613;28;20037;-81
2023/01/28 00:19:08;;;;;;;9.30;6.95;;;2.90;99.90;;;;;;5037830;28;20146;-81
2023/01/28 00:21:34;;;;;;;11.35;7.72;;;2.50;99.90;;;;;;5050790;28;20094;-81
2023/01/28 00:23:59;;;;;;;10.40;7.38;;;2.50;99.90;;;;;;5046305;28;20065;-81
2023/01/28 00:26:25;;;;;;;11.35;7.47;;;3.20;99.90;;;;;;5041665;28;20048;-80
2023/01/28 00:28:51;;;;;;;10.18;7.40;;;2.50;99.90;;;;;;5053293;28;20507;-81
2023/01/28 00:31:26;;;;;;;9.27;7.05;;;2.90;99.90;;;;;;5047526;28;20041;-81
2023/01/28 00:33:53;;;;;;;11.00;7.75;;;2.50;99.90;;;;;;5044403;28;20095;-80
2023/01/28 00:36:21;;;;;;;9.80;7.80;;;2.50;99.90;;;;;;5051747;28;20041;-81
2023/01/28 00:38:55;;;;;;;11.15;7.85;;;2.50;99.90;;;;;;5042626;28;20037;-81
2023/01/28 00:41:24;;;;;;;11.07;7.88;;;2.80;99.90;;;;;;5046277;28;20102;-81
2023/01/28 00:43:51;;;;;;;10.30;7.72;;;2.50;99.90;;;;;;5044214;28;20105;-81
2023/01/28 00:46:17;;;;;;;11.20;8.32;;;2.50;99.90;;;;;;5050233;28;20506;-81
2023/01/28 00:48:43;;;;;;;11.20;7.50;;;2.50;99.90;;;;;;5052134;28;20039;-81
2023/01/28 00:51:12;;;;;;;10.52;7.85;;;2.50;99.90;;;;;;5048901;28;20069;-81
2023/01/28 00:53:38;;;;;;;12.00;7.43;;;2.50;99.90;;;;;;5051970;28;20041;-81
2023/01/28 00:56:06;;;;;;;9.85;7.20;;;3.10;99.90;;;;;;5051245;28;20105;-81
2023/01/28 00:58:32;;;;;;;12.32;7.72;;;2.50;99.90;;;;;;5053037;28;20041;-81
2023/01/28 01:01:07;;;;;;;10.32;7.55;;;2.40;99.90;;;;;;5051258;28;20033;-81
2023/01/28 01:03:33;;;;;;;11.57;7.55;;;2.50;99.90;;;;;;5052059;28;20049;-80
2023/01/28 01:06:00;;;;;;;10.80;7.40;;;2.50;99.90;;;;;;5050554;28;20087;-81
2023/01/28 01:08:33;;;;;;;11.77;7.40;;;2.50;99.90;;;;;;5031996;28;20485;-81
2023/01/28 01:11:01;;;;;;;11.30;7.23;;;2.50;99.90;;;;;;5042142;28;20079;-81
2023/01/28 01:13:27;;;;;;;11.55;7.57;;;2.50;99.90;;;;;;5050019;28;20805;-81
2023/01/28 01:16:23;;;;;;;10.85;7.97;;;2.50;99.90;;;;;;5047567;28;20049;-81
2023/01/28 01:18:51;;;;;;;10.73;7.15;;;2.50;99.90;;;;;;5022300;28;20045;-81
2023/01/28 01:21:19;;;;;;;11.07;6.88;;;2.50;99.90;;;;;;5040417;28;20396;-81
2023/01/28 01:23:46;;;;;;;8.82;6.15;;;2.50;99.90;;;;;;5048840;28;20060;-82
2023/01/28 01:26:13;;;;;;;8.90;5.90;;;2.80;99.90;;;;;;5050987;28;20131;-81
2023/01/28 01:28:38;;;;;;;9.57;6.57;;;2.80;99.90;;;;;;5045411;28;20041;-81
2023/01/28 01:31:16;;;;;;;9.52;6.07;;;2.40;99.90;;;;;;5042773;28;20047;-81
2023/01/28 01:33:43;;;;;;;9.25;6.22;;;2.50;99.90;;;;;;5045761;28;20397;-81
2023/01/28 01:36:11;;;;;;;8.45;5.97;;;2.50;99.90;;;;;;5044786;28;20068;-81
2023/01/28 01:38:37;;;;;;;8.27;5.60;;;2.50;99.90;;;;;;5050774;28;20036;-81
2023/01/28 01:41:04;;;;;;;8.73;5.18;;;2.40;99.90;;;;;;5043691;28;20063;-81
2023/01/28 01:43:49;;;;;;;8.18;5.47;;;2.40;99.90;;;;;;5051586;28;20041;-81
2023/01/28 01:46:19;;;;;;;7.55;4.88;;;2.50;99.90;;;;;;5057787;28;20112;-81
2023/01/28 01:48:45;;;;;;;7.40;4.68;;;2.40;99.90;;;;;;5048724;28;20049;-81
2023/01/28 01:51:20;;;;;;;7.03;4.68;;;2.70;99.90;;;;;;5047674;28;20033;-81
2023/01/28 01:53:51;;;;;;;8.40;5.47;;;2.40;99.90;;;;;;5050284;28;20029;-82
2023/01/28 01:56:21;;;;;;;8.38;5.95;;;2.40;99.90;;;;;;5046395;28;20037;-81
2023/01/28 01:58:51;;;;;;;7.95;5.05;;;3.10;99.90;;;;;;5051384;28;20041;-81
2023/01/28 02:01:21;;;;;;;9.25;5.78;;;2.40;99.90;;;;;;5050426;28;20036;-81
2023/01/28 02:04:07;;;;;;;8.75;5.10;;;2.40;99.90;;;;;;5050165;28;20084;-81
2023/01/28 02:06:35;;;;;;;9.05;6.00;;;2.40;99.90;;;;;;5030145;28;20479;-81
2023/01/28 02:09:02;;;;;;;11.27;6.40;;;2.40;99.90;;;;;;5044633;28;20041;-81
2023/01/28 02:11:31;;;;;;;8.77;5.95;;;2.40;99.90;;;;;;5046531;28;20041;-81
2023/01/28 02:14:00;;;;;;;8.05;5.40;;;2.40;99.90;;;;;;5050718;28;20106;-81
2023/01/28 02:16:27;;;;;;;9.13;5.63;;;2.50;99.90;;;;;;5062126;28;20042;-80
2023/01/28 02:18:53;;;;;;;9.77;6.07;;;2.40;99.90;;;;;;5043643;28;20050;-80
2023/01/28 02:21:43;;;;;;;8.27;5.43;;;2.40;99.90;;;;;;5042449;28;20034;-81
2023/01/28 02:24:35;;;;;;;7.88;5.35;;;2.40;99.90;;;;;;5046183;28;20044;-80
2023/01/28 02:27:15;;;;;;;10.27;5.45;;;2.50;99.90;;;;;;5041155;28;20123;-80
2023/01/28 02:29:46;;;;;;;10.07;6.32;;;2.40;99.90;;;;;;5032930;28;20044;-80
2023/01/28 02:32:29;;;;;;;9.73;6.22;;;2.40;99.90;;;;;;5042675;28;20116;-80
2023/01/28 02:35:31;;;;;;;8.32;5.93;;;2.40;99.90;;;;;;5044134;28;20049;-80
2023/01/28 02:38:07;;;;;;;10.80;6.78;;;2.40;99.90;;;;;;5004543;28;20048;-80
2023/01/28 02:43:40;;;;;;;7.70;5.43;;;2.40;99.90;;;;;;5052948;28;20090;-80
2023/01/28 02:49:20;;;;;;;8.82;5.53;;;2.40;99.90;;;;;;5041800;28;20113;-80
2023/01/28 02:52:07;;;;;;;7.82;5.43;;;2.40;99.90;;;;;;5046385;28;20385;-80
2023/01/28 02:54:45;;;;;;;7.88;5.28;;;2.40;99.90;;;;;;5049397;28;20120;-80
2023/01/28 02:57:23;;;;;;;8.27;5.70;;;2.40;99.90;;;;;;5047388;28;20123;-80
2023/01/28 03:00:16;;;;;;;8.82;5.80;;;2.40;99.90;;;;;;5065761;28;20094;-81
2023/01/28 03:03:05;;;;;;;8.73;6.32;;;2.40;99.90;;;;;;5048522;28;20095;-80
2023/01/28 03:06:02;;;;;;;7.93;5.55;;;2.40;99.90;;;;;;5035467;28;20050;-81
2023/01/28 03:36:52;;;;;;;8.18;5.90;;;2.30;99.90;;;;;;5045017;28;20064;-81
2023/01/28 03:39:22;;;;;;;9.02;5.72;;;2.30;99.90;;;;;;5021759;28;20120;-80
2023/01/28 03:42:01;;;;;;;7.10;5.20;;;2.40;99.90;;;;;;5043827;28;20101;-80
2023/01/28 03:47:11;;;;;;;6.68;4.75;;;2.30;99.90;;;;;;5048578;28;20072;-80
2023/01/28 03:49:48;;;;;;;8.52;5.57;;;2.30;99.90;;;;;;5046295;28;20044;-80
2023/01/28 03:52:15;;;;;;;8.52;5.88;;;2.30;99.90;;;;;;5045660;28;20055;-80
2023/01/28 03:54:41;;;;;;;8.93;5.63;;;2.30;99.90;;;;;;5047223;28;20037;-80
2023/01/28 03:57:07;;;;;;;8.13;5.75;;;2.20;99.90;;;;;;5049288;28;20087;-80
2023/01/28 03:59:33;;;;;;;8.18;5.80;;;2.20;99.90;;;;;;5037205;28;20053;-81
2023/01/28 04:01:59;;;;;;;9.20;6.18;;;2.20;99.90;;;;;;5042030;28;20037;-80
2023/01/28 04:04:25;;;;;;;9.18;6.13;;;2.20;99.90;;;;;;5044351;28;20048;-80
2023/01/28 04:06:51;;;;;;;13.75;5.90;;;2.20;99.90;;;;;;5057160;28;20049;-80
2023/01/28 04:09:17;;;;;;;9.38;6.28;;;2.20;99.90;;;;;;5061571;28;20037;-81
2023/01/28 04:11:43;;;;;;;9.18;6.07;;;2.30;99.90;;;;;;5031105;28;20043;-80
2023/01/28 04:14:08;;;;;;;10.07;5.70;;;2.30;99.90;;;;;;5048186;28;20039;-80
2023/01/28 04:16:34;;;;;;;9.80;6.18;;;2.30;99.90;;;;;;5048211;28;20045;-80
2023/01/28 04:18:59;;;;;;;10.65;5.90;;;2.30;99.90;;;;;;5046197;28;20056;-80
2023/01/28 04:21:25;;;;;;;10.00;5.68;;;2.30;99.90;;;;;;5043755;28;20439;-81
2023/01/28 04:23:51;;;;;;;8.88;5.72;;;2.90;99.90;;;;;;5039724;28;20049;-80
2023/01/28 04:26:16;;;;;;;12.25;5.55;;;2.30;99.90;;;;;;5046854;28;20373;-80
2023/01/28 04:28:42;;;;;;;8.65;5.43;;;2.30;99.90;;;;;;5044747;28;20033;-80
2023/01/28 04:31:08;;;;;;;7.68;5.20;;;2.30;99.90;;;;;;5048260;28;20480;-80
2023/01/28 04:33:34;;;;;;;7.30;5.18;;;2.30;99.90;;;;;;5043107;28;20523;-80
2023/01/28 04:35:59;;;;;;;9.23;6.30;;;2.20;99.90;;;;;;5043121;28;20037;-80
2023/01/28 04:38:25;;;;;;;10.25;6.85;;;2.20;99.90;;;;;;5043286;28;20050;-80
2023/01/28 04:40:52;;;;;;;7.82;5.70;;;2.20;99.90;;;;;;5040633;28;20037;-80
2023/01/28 04:43:18;;;;;;;8.82;5.50;;;2.20;99.90;;;;;;5045426;28;20562;-80
2023/01/28 04:45:45;;;;;;;8.90;6.05;;;2.20;99.90;;;;;;5039737;28;20049;-80
2023/01/28 04:48:12;;;;;;;8.77;6.07;;;2.20;99.90;;;;;;5043733;28;20033;-80
2023/01/28 04:50:38;;;;;;;8.20;5.18;;;2.20;99.90;;;;;;5046524;28;20037;-80
2023/01/28 04:53:03;;;;;;;8.30;5.57;;;2.20;99.90;;;;;;5046129;28;20045;-81
2023/01/28 04:55:29;;;;;;;13.25;6.15;;;2.20;99.90;;;;;;5044949;28;20170;-80
2023/01/28 04:57:55;;;;;;;11.48;6.55;;;2.20;99.90;;;;;;5046723;28;20365;-80
2023/01/28 05:00:21;;;;;;;9.52;6.05;;;2.20;99.90;;;;;;5047676;28;20484;-80
2023/01/28 05:02:46;;;;;;;10.25;6.13;;;2.20;99.90;;;;;;5049585;28;20034;-80
2023/01/28 05:05:12;;;;;;;9.27;5.95;;;2.20;99.90;;;;;;5039677;28;20404;-80
2023/01/28 05:07:38;;;;;;;10.13;6.05;;;2.20;99.90;;;;;;5049397;28;20073;-80
2023/01/28 05:10:04;;;;;;;9.57;5.80;;;2.20;99.90;;;;;;5032417;28;20117;-80
2023/01/28 05:12:31;;;;;;;8.20;5.47;;;2.20;99.90;;;;;;5041743;28;20033;-80
2023/01/28 05:14:59;;;;;;;8.07;5.95;;;2.20;99.90;;;;;;5052861;28;20033;-80
2023/01/28 05:17:26;;;;;;;10.10;5.93;;;2.20;99.90;;;;;;5050644;28;20044;-80
2023/01/28 05:19:51;;;;;;;9.27;5.55;;;2.20;99.90;;;;;;5046105;28;20522;-80
2023/01/28 05:22:17;;;;;;;7.82;5.38;;;2.20;99.90;;;;;;5049279;28;20033;-80
2023/01/28 05:24:43;;;;;;;6.97;4.97;;;2.20;99.90;;;;;;5050194;28;20048;-80
2023/01/28 05:27:09;;;;;;;8.07;5.28;;;2.20;99.90;;;;;;5049862;28;20597;-80
2023/01/28 05:29:34;;;;;;;7.55;5.35;;;2.20;99.90;;;;;;5041462;28;20041;-80
2023/01/28 05:32:00;;;;;;;8.68;5.20;;;2.20;99.90;;;;;;5047825;28;20044;-80
2023/01/28 05:34:27;;;;;;;9.70;5.60;;;2.20;99.90;;;;;;5057968;28;20123;-80
2023/01/28 05:36:52;;;;;;;11.93;6.32;;;2.10;99.90;;;;;;5060499;28;20046;-80
2023/01/28 05:39:18;;;;;;;9.15;6.15;;;2.10;99.90;;;;;;5066197;28;20044;-80
2023/01/28 05:41:44;;;;;;;10.38;5.93;;;2.10;99.90;;;;;;5043809;28;20049;-80
2023/01/28 05:44:09;;;;;;;9.63;5.97;;;2.10;99.90;;;;;;5046186;28;20117;-80
2023/01/28 05:46:35;;;;;;;8.52;5.93;;;2.10;99.90;;;;;;5045745;28;20144;-80
2023/01/28 05:49:01;;;;;;;8.43;5.40;;;2.10;99.90;;;;;;5051702;28;20052;-80
2023/01/28 05:51:26;;;;;;;9.77;5.70;;;2.10;99.90;;;;;;5051057;28;20044;-80
2023/01/28 05:53:52;;;;;;;8.80;5.85;;;2.10;99.90;;;;;;5050955;28;20037;-80
2023/01/28 05:56:18;;;;;;;9.13;5.97;;;2.00;99.90;;;;;;5050111;28;20064;-79
2023/01/28 05:58:44;;;;;;;8.27;5.35;;;2.10;99.90;;;;;;5045202;28;20044;-80
2023/01/28 06:01:09;;;;;;;8.25;5.85;;;2.00;99.90;;;;;;5049250;28;20048;-79
2023/01/28 06:03:35;;;;;;;9.30;5.80;;;2.00;99.90;;;;;;5061904;28;20053;-80
2023/01/28 06:06:00;;;;;;;8.82;5.20;;;2.00;99.90;;;;;;5046672;28;20076;-80
2023/01/28 06:08:26;;;;;;;7.97;5.88;;;2.00;99.90;;;;;;5033493;28;20045;-80
2023/01/28 06:10:52;;;;;;;8.57;5.75;;;2.00;99.90;;;;;;5039981;28;20036;-80
2023/01/28 06:13:17;;;;;;;8.02;5.07;;;2.00;99.90;;;;;;5046366;28;20040;-80
2023/01/28 06:15:43;;;;;;;8.20;5.35;;;2.00;99.90;;;;;;5030658;28;20052;-80
2023/01/28 06:18:09;;;;;;;8.90;5.55;;;2.00;99.90;;;;;;5026730;28;20037;-80
2023/01/28 06:20:34;;;;;;;9.32;5.68;;;2.00;99.90;;;;;;5030325;28;20053;-80
2023/01/28 06:23:00;;;;;;;8.90;5.47;;;2.00;99.90;;;;;;5044640;28;20096;-80
2023/01/28 06:25:26;;;;;;;9.65;5.68;;;2.00;99.90;;;;;;5048998;28;20457;-80
2023/01/28 06:27:51;;;;;;;8.90;6.00;;;2.00;99.90;;;;;;5048981;28;20036;-80
2023/01/28 06:30:17;;;;;;;9.27;5.82;;;2.00;99.90;;;;;;5046674;28;20037;-80
2023/01/28 06:32:43;;;;;;;8.65;5.90;;;2.00;99.90;;;;;;5044687;28;20033;-80
2023/01/28 06:35:09;;;;;;;8.40;5.50;;;2.00;99.90;;;;;;5045083;28;20037;-81
2023/01/28 06:37:35;;;;;;;8.32;5.43;;;2.00;99.90;;;;;;5040139;28;20048;-80
2023/01/28 06:40:01;;;;;;;8.73;5.78;;;2.00;99.90;;;;;;5045304;28;20044;-80
2023/01/28 06:42:27;;;;;;;10.02;6.05;;;2.00;99.90;;;;;;5047940;28;20056;-80
2023/01/28 06:44:53;;;;;;;9.65;6.72;;;2.00;99.90;;;;;;5041408;28;20396;-80
2023/01/28 06:47:18;;;;;;;10.02;6.57;;;2.00;99.90;;;;;;5047017;28;20045;-79
2023/01/28 06:49:44;;;;;;;8.45;5.82;;;2.00;99.90;;;;;;5049853;28;20403;-80
2023/01/28 06:52:09;;;;;;;9.60;6.78;;;2.00;99.90;;;;;;5050738;28;20029;-80
2023/01/28 06:54:35;;;;;;;10.98;7.20;;;2.00;99.90;;;;;;5047973;28;20051;-80
2023/01/28 06:57:00;;;;;;;10.48;6.55;;;2.00;99.90;;;;;;5044389;28;20180;-80
2023/01/28 06:59:26;;;;;;;10.40;7.53;;;2.00;99.90;;;;;;5050163;28;20399;-80
2023/01/28 07:01:51;;;;;;;10.80;7.20;;;2.00;99.90;;;;;;5046098;28;20051;-80
2023/01/28 07:04:17;;;;;;;11.95;7.35;;;2.00;99.90;;;;;;5047668;28;20037;-80
2023/01/28 07:06:43;;;;;;;11.18;7.57;;;2.00;99.90;;;;;;5049134;28;20392;-79
2023/01/28 07:09:08;;;;;;;9.80;7.10;;;1.90;99.90;;;;;;5048534;28;20041;-80
2023/01/28 07:11:34;;;;;;;14.15;7.90;;;2.00;99.90;;;;;;5046101;28;20156;-80
2023/01/28 07:14:00;;;;;;;12.07;7.88;;;1.90;99.90;;;;;;5046334;28;20039;-80
2023/01/28 07:16:25;;;;;;;13.70;8.85;;;1.90;99.90;;;;;;5050736;28;20494;-79
2023/01/28 07:18:51;;;;;;;11.88;7.72;;;1.90;99.90;;;;;;5050637;28;20394;-79
2023/01/28 07:21:16;;;;;;;13.13;7.53;;;1.90;99.90;;;;;;5046289;28;20040;-80
2023/01/28 07:23:42;;;;;;;13.98;8.88;;;1.90;99.90;;;;;;5048103;28;20448;-79
2023/01/28 07:26:07;;;;;;;12.85;8.80;;;1.90;99.90;;;;;;5041930;28;20044;-80
2023/01/28 07:28:33;;;;;;;12.90;7.72;;;1.80;99.90;;;;;;5044350;28;20114;-80
2023/01/28 07:30:59;;;;;;;12.05;8.27;;;1.70;99.90;;;;;;5039070;28;20487;-80
2023/01/28 07:33:24;;;;;;;12.10;7.85;;;1.70;99.90;;;;;;5044416;28;20064;-80
2023/01/28 07:35:50;;;;;;;14.07;7.90;;;1.60;99.90;;;;;;5045229;28;20499;-81
2023/01/28 07:38:16;;;;;;;16.25;8.05;;;1.50;99.90;;;;;;5047955;28;20125;-81
2023/01/28 07:40:41;;;;;;;13.63;8.43;;;1.50;99.90;;;;;;5042160;28;20433;-80
2023/01/28 07:43:08;;;;;;;13.32;8.48;;;1.40;99.90;;;;;;5041381;28;20072;-80
2023/01/28 07:45:34;;;;;;;12.45;7.75;;;1.40;99.90;;;;;;5049727;28;20075;-80
2023/01/28 07:48:03;;;;;;;12.75;8.50;;;1.30;99.90;;;;;;5041777;28;20395;-80
2023/01/28 07:50:31;;;;;;;13.95;8.52;;;1.30;99.90;;;;;;5046405;28;20043;-80
2023/01/28 07:52:57;;;;;;;13.50;8.52;;;1.20;99.90;;;;;;5049907;28;20494;-81
2023/01/28 07:55:23;;;;;;;13.55;8.20;;;1.20;99.90;;;;;;5045649;28;20048;-81
2023/01/28 07:57:56;;;;;;;13.43;8.43;;;1.10;99.90;;;;;;5045686;28;20033;-79
2023/01/28 08:00:23;;;;;;;14.02;8.65;;;1.20;99.90;;;;;;5047184;28;20037;-80
2023/01/28 08:02:49;;;;;;;14.27;8.70;;;1.20;99.90;;;;;;5046619;28;20082;-82
2023/01/28 08:05:19;;;;;;;12.85;8.95;;;1.10;99.90;;;;;;5040973;28;20090;-81
2023/01/28 08:07:47;;;;;;;13.30;8.32;;;1.10;99.90;;;;;;5043710;28;20041;-81
2023/01/28 08:10:13;;;;;;;14.98;8.80;;;1.10;99.90;;;;;;5044863;28;20090;-82
2023/01/28 08:12:39;;;;;;;14.73;8.75;;;1.10;99.90;;;;;;5047180;28;20052;-81
2023/01/28 08:15:06;;;;;;;13.75;8.27;;;1.00;99.90;;;;;;5048125;28;20040;-82
2023/01/28 08:17:31;;;;;;;15.02;8.38;;;1.00;99.90;;;;;;5049187;28;20115;-82
2023/01/28 08:19:57;;;;;;;14.82;7.78;;;1.00;99.90;;;;;;5049825;28;20163;-81
2023/01/28 08:22:25;;;;;;;14.60;7.88;;;1.00;99.90;;;;;;5048330;28;20041;-81
2023/01/28 08:24:50;;;;;;;15.88;8.20;;;1.00;99.90;;;;;;5045865;28;20117;-82
2023/01/28 08:27:16;;;;;;;14.07;8.68;;;1.00;99.90;;;;;;5045975;28;20116;-81
2023/01/28 08:29:42;;;;;;;15.10;8.27;;;1.00;99.90;;;;;;5044290;28;20041;-81
2023/01/28 08:32:08;;;;;;;14.77;8.77;;;1.00;99.90;;;;;;5041829;28;20527;-81
2023/01/28 08:34:34;;;;;;;14.48;8.60;;;1.00;99.90;;;;;;5041027;28;20041;-82
2023/01/28 08:36:59;;;;;;;12.25;8.00;;;1.00;99.90;;;;;;5064317;28;20051;-82
2023/01/28 08:39:25;;;;;;;12.90;7.88;;;1.00;99.90;;;;;;5045973;28;20057;-81
2023/01/28 08:41:51;;;;;;;12.43;7.30;;;1.10;99.90;;;;;;5048277;28;20052;-82
2023/01/28 08:44:17;;;;;;;13.13;7.93;;;1.00;99.90;;;;;;5049510;28;20808;-82
2023/01/28 08:46:42;;;;;;;14.02;7.75;;;1.10;99.90;;;;;;5050559;28;20049;-82
2023/01/28 08:49:08;;;;;;;12.43;7.47;;;1.10;99.90;;;;;;5044505;28;20021;-81
2023/01/28 08:51:33;;;;;;;12.68;7.63;;;1.10;99.90;;;;;;5045259;28;20810;-82
2023/01/28 08:53:59;;;;;;;13.13;6.95;;;1.20;99.90;;;;;;5046922;28;20151;-81
2023/01/28 08:56:25;;;;;;;13.05;6.80;;;1.30;99.90;;;;;;5052715;28;20202;-81
2023/01/28 08:58:51;;;;;;;10.55;6.47;;;1.40;99.90;;;;;;5048284;28;20055;-81
2023/01/28 09:01:16;;;;;;;10.65;6.47;;;1.50;99.90;;;;;;5049342;28;20037;-81
2023/01/28 09:03:42;;;;;;;11.02;6.50;;;1.60;99.90;;;;;;5045716;28;20048;-81
2023/01/28 09:06:07;;;;;;;10.10;5.70;;;1.70;99.90;;;;;;5046001;28;20048;-81
2023/01/28 09:08:33;;;;;;;9.60;5.93;;;1.80;99.90;;;;;;5047653;28;20045;-81
2023/01/28 09:10:59;;;;;;;10.63;5.68;;;1.80;99.90;;;;;;5045762;28;20048;-81
2023/01/28 09:13:26;;;;;;;12.23;6.22;;;1.70;99.90;;;;;;5051447;28;20037;-81
2023/01/28 09:15:51;;;;;;;13.02;6.25;;;1.70;99.90;;;;;;5046522;28;20123;-81
2023/01/28 09:18:17;;;;;;;12.27;7.00;;;1.80;99.90;;;;;;5043907;28;20112;-82
2023/01/28 09:20:43;;;;;;;11.23;6.85;;;1.70;99.90;;;;;;5047678;28;20046;-81
2023/01/28 09:23:09;;;;;;;10.57;5.65;;;1.80;99.90;;;;;;5044154;28;20053;-84
2023/01/28 09:25:35;;;;;;;14.07;7.03;;;1.80;99.90;;;;;;5050447;28;20041;-81
2023/01/28 09:28:02;;;;;;;12.25;7.13;;;1.80;99.90;;;;;;5047170;28;20550;-82
2023/01/28 09:30:28;;;;;;;14.40;6.80;;;1.90;99.90;;;;;;5051432;28;20224;-82
2023/01/28 09:32:55;;;;;;;11.75;6.97;;;1.90;99.90;;;;;;5045189;28;20545;-83
2023/01/28 09:35:21;;;;;;;11.65;6.65;;;1.90;99.90;;;;;;5047220;28;20080;-84
2023/01/28 09:37:47;;;;;;;10.95;7.15;;;1.90;99.90;;;;;;5045866;28;20083;-83
2023/01/28 09:40:20;;;;;;;11.10;7.03;;;1.90;99.90;;;;;;5049639;28;20045;-84
2023/01/28 09:42:54;;;;;;;8.93;5.85;;;2.00;99.90;;;;;;5044492;28;20052;-82
2023/01/28 09:45:41;;;;;;;9.15;5.63;;;2.10;99.90;;;;;;5044025;28;20887;-82
2023/01/28 09:48:14;;;;;;;10.10;5.53;;;2.20;99.90;;;;;;5051664;28;20111;-82
2023/01/28 09:50:49;;;;;;;8.93;6.00;;;2.30;99.90;;;;;;5044910;28;20575;-82
2023/01/28 09:53:28;;;;;;;10.35;6.28;;;2.40;99.90;;;;;;5043351;28;20119;-82
2023/01/28 09:56:01;;;;;;;9.73;5.57;;;2.50;99.90;;;;;;5037589;28;20433;-82
2023/01/28 09:58:27;;;;;;;9.13;5.68;;;2.70;99.90;;;;;;5037455;28;20045;-82
2023/01/28 10:01:08;;;;;;;9.05;5.22;;;2.90;99.90;;;;;;5042679;28;20041;-82
2023/01/28 10:03:41;;;;;;;9.23;5.65;;;3.00;99.90;;;;;;5047223;28;20045;-83
2023/01/28 10:06:25;;;;;;;9.25;5.55;;;3.10;99.90;;;;;;5044091;28;20111;-82
2023/01/28 10:09:25;;;;;;;9.80;5.85;;;3.20;99.90;;;;;;5045625;28;20175;-82
2023/01/28 10:12:14;;;;;;;7.90;4.80;;;3.30;99.90;;;;;;5046682;28;20405;-82
2023/01/28 10:15:12;;;;;;;9.50;5.40;;;3.40;99.90;;;;;;5050578;28;20037;-82
2023/01/28 10:17:42;;;;;;;9.10;5.57;;;3.50;99.90;;;;;;5046243;28;20056;-82
2023/01/28 10:20:10;;;;;;;8.43;5.60;;;3.60;99.90;;;;;;5046238;28;20526;-83
2023/01/28 10:22:50;;;;;;;9.48;5.10;;;3.70;99.90;;;;;;5041103;28;20037;-83
2023/01/28 10:25:23;;;;;;;8.38;4.35;;;3.70;99.90;;;;;;5043705;28;20055;-83
2023/01/28 10:27:50;;;;;;;8.65;4.50;;;3.70;99.90;;;;;;5049841;28;20044;-83
2023/01/28 10:30:26;;;;;;;9.27;4.90;;;3.70;99.90;;;;;;5043190;28;20063;-83
2023/01/28 10:33:25;;;;;;;8.35;4.93;;;3.70;99.90;;;;;;5047086;28;20048;-82
2023/01/28 10:35:51;;;;;;;10.18;5.13;;;3.60;99.90;;;;;;5039512;28;20102;-82
2023/01/28 10:38:21;;;;;;;8.50;5.00;;;3.60;99.90;;;;;;5049297;28;20049;-82
2023/01/28 10:40:47;;;;;;;8.70;5.20;;;3.60;99.90;;;;;;5049634;28;20032;-82
2023/01/28 10:43:24;;;;;;;8.30;5.10;;;3.50;99.90;;;;;;5045386;28;20074;-83
2023/01/28 10:46:17;;;;;;;8.02;5.15;;;3.50;99.90;;;;;;5043716;28;20040;-83
2023/01/28 10:49:05;;;;;;;9.50;5.30;;;4.20;99.90;;;;;;5050041;28;20104;-83
2023/01/28 10:51:36;;;;;;;9.50;5.78;;;3.70;99.90;;;;;;5043916;28;20518;-83
2023/01/28 10:54:03;;;;;;;8.38;5.38;;;3.80;99.90;;;;;;5048968;28;20109;-83
2023/01/28 10:56:34;;;;;;;8.45;5.50;;;3.90;99.90;;;;;;5047800;28;20090;-82
2023/01/28 10:59:22;;;;;;;10.05;5.45;;;4.00;99.90;;;;;;5039701;28;20083;-83
2023/01/28 11:01:56;;;;;;;8.88;5.20;;;4.10;99.90;;;;;;5045554;28;20116;-84
2023/01/28 11:04:25;;;;;;;;;;;4.20;99.90;;;;;;5040711;28;20052;-82
2023/01/28 11:06:53;;;;;;;8.30;4.88;;;4.40;99.90;;;;;;5043149;28;20053;-82
2023/01/28 11:09:30;;;;;;;13.07;6.10;;;4.50;99.90;;;;;;5041261;28;20052;-81
2023/01/28 11:11:56;;;;;;;8.65;5.45;;;4.70;99.90;;;;;;5058105;28;20045;-81
2023/01/28 11:14:25;;;;;;;9.15;5.45;;;4.90;99.90;;;;;;5039875;28;20060;-82
2023/01/28 11:16:53;;;;;;;8.57;5.57;;;5.10;99.90;;;;;;5043863;28;20041;-81
2023/01/28 11:19:22;;;;;;;8.55;5.60;;;5.20;99.90;;;;;;5046008;28;20044;-82
2023/01/28 11:21:53;;;;;;;8.55;5.38;;;5.40;99.90;;;;;;5041831;28;20079;-83
2023/01/28 11:24:24;;;;;;;10.05;5.65;;;5.60;99.90;;;;;;5046581;28;20049;-83
2023/01/28 11:26:53;;;;;;;8.73;5.60;;;5.60;99.90;;;;;;5040956;28;20052;-83
2023/01/28 11:29:33;;;;;;;8.80;5.00;;;5.60;99.90;;;;;;5045374;28;20424;-82
2023/01/28 11:32:00;;;;;;;8.57;5.88;;;5.50;99.90;;;;;;5046947;28;20080;-82
2023/01/28 11:34:32;;;;;;;9.77;6.05;;;5.40;99.90;;;;;;5041071;28;20636;-82
2023/01/28 11:37:04;;;;;;;9.80;5.30;;;5.40;99.90;;;;;;5044954;28;20029;-84
2023/01/28 11:39:30;;;;;;;7.72;4.90;;;5.40;99.90;;;;;;5047100;28;20040;-84
2023/01/28 11:42:22;;;;;;;8.65;5.45;;;5.40;99.90;;;;;;5044068;28;20043;-83
2023/01/28 11:44:49;;;;;;;8.43;5.40;;;5.40;99.90;;;;;;5039222;28;20048;-82
2023/01/28 11:47:36;;;;;;;8.65;5.70;;;5.80;99.90;;;;;;5044869;28;20033;-83
2023/01/28 11:50:17;;;;;;;10.75;5.72;;;5.50;99.90;;;;;;5040746;28;20091;-83
2023/01/28 11:52:56;;;;;;;9.40;5.85;;;5.60;99.90;;;;;;5040256;28;20064;-86
2023/01/28 11:55:28;;;;;;;8.43;5.88;;;5.70;99.90;;;;;;5046773;28;20036;-81
2023/01/28 11:58:08;;;;;;;9.00;5.63;;;5.80;99.90;;;;;;5045132;28;20053;-83
2023/01/28 12:00:48;;;;;;;8.98;5.78;;;5.90;99.90;;;;;;5043698;28;20505;-85
2023/01/28 12:03:52;;;;;;;10.65;6.28;;;5.90;99.90;;;;;;5046340;28;20120;-84
2023/01/28 12:06:57;;;;;;;8.32;5.35;;;6.00;99.90;;;;;;5044528;28;20041;-84
2023/01/28 12:09:47;;;;;;;10.68;5.63;;;6.00;99.90;;;;;;5038565;28;20037;-86
2023/01/28 12:12:40;;;;;;;11.45;6.78;;;6.00;99.90;;;;;;5048045;28;20045;-86
2023/01/28 12:15:45;;;;;;;8.38;5.00;;;5.90;99.90;;;;;;5052697;28;20041;-88
2023/01/28 12:18:33;;;;;;;9.80;5.32;;;5.90;99.90;;;;;;5054171;28;20412;-87
2023/01/28 12:21:09;;;;;;;9.40;5.38;;;5.80;99.90;;;;;;5070862;28;20060;-86
2023/01/28 12:23:44;;;;;;;10.43;5.55;;;5.70;99.90;;;;;;5043177;28;20483;-87
2023/01/28 12:26:15;;;;;;;10.73;5.50;;;5.60;99.90;;;;;;5046905;28;20131;-86
2023/01/28 12:28:53;;;;;;;9.63;5.22;;;5.50;99.90;;;;;;5045253;28;20594;-85
2023/01/28 12:31:42;;;;;;;11.80;5.88;;;5.30;99.90;;;;;;5049125;28;20042;-86
2023/01/28 12:34:30;;;;;;;11.38;5.68;;;5.20;99.90;;;;;;5051696;28;20055;-86
2023/01/28 12:37:15;;;;;;;9.73;5.35;;;5.10;99.90;;;;;;5052112;28;20492;-85
2023/01/28 12:40:15;;;;;;;10.93;5.50;;;5.30;99.90;;;;;;5051233;28;20044;-86
2023/01/28 12:43:01;;;;;;;8.32;4.53;;;5.50;99.90;;;;;;5049541;28;20045;-86
2023/01/28 12:45:44;;;;;;;8.40;4.80;;;5.60;99.90;;;;;;5044683;28;20045;-83
2023/01/28 12:48:29;;;;;;;9.95;5.68;;;5.90;99.90;;;;;;5050679;28;20101;-85
2023/01/28 12:51:03;;;;;;;11.18;5.75;;;6.00;99.90;;;;;;5050147;28;20110;-87
2023/01/28 12:54:03;;;;;;;9.85;6.07;;;6.10;99.90;;;;;;5050685;28;20041;-85
2023/01/28 12:56:33;;;;;;;12.15;5.68;;;6.10;99.90;;;;;;5046043;28;20045;-85
2023/01/28 12:59:24;;;;;;;11.05;6.10;;;6.00;99.90;;;;;;5051381;28;20112;-85
2023/01/28 13:02:12;;;;;;;12.43;6.32;;;5.90;99.90;;;;;;5050675;28;20045;-85
2023/01/28 13:05:18;;;;;;;9.65;5.10;;;5.90;99.90;;;;;;5048880;28;20041;-86
2023/01/28 13:08:04;;;;;;;10.38;5.93;;;5.70;99.90;;;;;;5013838;28;20046;-85
2023/01/28 13:10:42;;;;;;;10.77;5.97;;;5.60;99.90;;;;;;5012669;28;20695;-85
2023/01/28 13:13:37;;;;;;;11.93;6.15;;;5.50;99.90;;;;;;5012874;28;20239;-85
2023/01/28 13:16:06;;;;;;;9.32;5.22;;;5.50;99.90;;;;;;5008195;28;20057;-85
2023/01/28 13:18:49;;;;;;;9.65;5.50;;;5.50;99.90;;;;;;4996403;28;20161;-85
2023/01/28 13:21:36;;;;;;;13.35;5.70;;;5.50;99.90;;;;;;5011993;28;20045;-85
2023/01/28 13:24:01;;;;;;;10.75;5.72;;;5.50;99.90;;;;;;5008343;28;20045;-85
2023/01/28 13:26:45;;;;;;;12.13;5.55;;;5.60;99.90;;;;;;5008704;28;20105;-86
2023/01/28 13:29:14;;;;;;;13.27;7.30;;;5.60;99.90;;;;;;4994203;28;20563;-86
2023/01/28 13:31:45;;;;;;;12.75;6.68;;;5.60;99.90;;;;;;4994311;28;20099;-85
2023/01/28 13:34:26;;;;;;;13.15;6.82;;;5.60;99.90;;;;;;5010835;28;20080;-86
2023/01/28 13:36:52;;;;;;;22.02;8.65;;;5.50;99.90;;;;;;5009228;28;20088;-85
2023/01/28 13:39:23;;;;;;;22.70;10.65;;;5.50;99.90;;;;;;5042293;28;20052;-85
2023/01/28 13:41:52;;;;;;;18.73;8.82;;;5.50;99.90;;;;;;5046407;28;20504;-85
2023/01/28 13:44:31;;;;;;;10.63;6.72;;;5.50;99.90;;;;;;5046114;28;20033;-85
2023/01/28 13:47:04;;;;;;;13.88;6.38;;;5.60;99.90;;;;;;5047625;28;20044;-85
2023/01/28 13:49:42;;;;;;;10.27;5.90;;;5.60;99.90;;;;;;5046957;28;20375;-85
2023/01/28 13:52:11;;;;;;;11.65;6.47;;;5.50;99.90;;;;;;5047013;28;20049;-85